Time;durP1;ratioP1;P1;durP2;ratioP2;P2;SDS_P1;SDS_P2;PMS_P1;PMS_P2;Temp;Humidity;BMP_temperature;BMP_pressure;BME280_temperature;BME280_humidity;BME280_pressure;Samples;Min_cycle;Max_cycle;Signal;HPM_P1;HPM_P2
2023/07/17 00:03:42;;;;;;;2.28;1.77;;;18.60;1.00;;;;;;9924856;29;20219;-81
2023/07/17 00:09:04;;;;;;;3.72;2.00;;;18.60;1.00;;;;;;9921219;30;20205;-81
2023/07/17 00:14:25;;;;;;;2.75;1.83;;;18.60;99.90;;;;;;9933640;30;20271;-81
2023/07/17 00:19:54;;;;;;;2.33;1.90;;;18.70;99.90;;;;;;9938857;29;20288;-80
2023/07/17 00:25:17;;;;;;;4.47;2.63;;;18.80;1.00;;;;;;9958992;29;20242;-80
2023/07/17 00:30:38;;;;;;;2.92;2.05;;;18.80;1.00;;;;;;9954794;29;20217;-81
2023/07/17 00:35:59;;;;;;;5.30;2.17;;;18.70;1.00;;;;;;9956846;29;20256;-80
2023/07/17 00:41:21;;;;;;;3.60;2.38;;;18.70;99.90;;;;;;9932837;30;20212;-82
2023/07/17 00:46:46;;;;;;;4.40;2.60;;;18.80;99.90;;;;;;9920673;30;20557;-82
2023/07/17 00:52:10;;;;;;;2.95;2.00;;;18.80;1.00;;;;;;9938578;29;20435;-82
2023/07/17 00:57:33;;;;;;;5.10;2.35;;;18.70;99.90;;;;;;9963449;29;20239;-82
2023/07/17 01:02:55;;;;;;;4.68;2.50;;;18.70;99.90;;;;;;9982017;29;20507;-82
2023/07/17 01:08:18;;;;;;;3.53;2.10;;;18.70;1.00;;;;;;9974151;29;20255;-82
2023/07/17 01:13:47;;;;;;;2.17;1.80;;;18.70;99.90;;;;;;9932092;30;20205;-83
2023/07/17 01:19:08;;;;;;;4.45;1.95;;;18.70;99.90;;;;;;9931381;29;20210;-81
2023/07/17 01:24:29;;;;;;;2.53;1.67;;;18.80;1.00;;;;;;9946392;29;20304;-81
2023/07/17 01:29:51;;;;;;;2.42;1.70;;;18.80;1.00;;;;;;9944818;29;20215;-82
2023/07/17 01:35:12;;;;;;;2.42;2.00;;;18.90;99.90;;;;;;9957895;29;20465;-81
2023/07/17 01:40:34;;;;;;;2.10;1.90;;;18.90;99.90;;;;;;9956888;29;20220;-81
2023/07/17 01:45:55;;;;;;;3.22;2.45;;;18.80;99.90;;;;;;9957813;29;20213;-80
2023/07/17 01:51:16;;;;;;;4.80;2.50;;;18.70;58.30;;;;;;9956696;29;20232;-81
2023/07/17 01:56:37;;;;;;;5.47;2.85;;;18.70;99.90;;;;;;9942498;29;20249;-83
2023/07/17 02:02:00;;;;;;;2.65;2.03;;;18.60;99.90;;;;;;9917608;30;20387;-83
2023/07/17 02:07:22;;;;;;;3.58;2.47;;;18.60;1.00;;;;;;9933163;29;20292;-82
2023/07/17 02:12:43;;;;;;;6.88;2.90;;;18.60;1.00;;;;;;9929726;30;20205;-80
2023/07/17 02:18:05;;;;;;;3.65;2.50;;;18.50;99.90;;;;;;9942369;29;20300;-82
2023/07/17 02:23:26;;;;;;;3.67;2.42;;;18.50;99.90;;;;;;9933493;29;20205;-83
2023/07/17 02:28:47;;;;;;;4.97;2.55;;;18.40;1.00;;;;;;9935481;29;20256;-82
2023/07/17 02:34:08;;;;;;;5.93;2.97;;;18.30;1.00;;;;;;9977961;29;20208;-82
2023/07/17 02:39:30;;;;;;;4.20;2.88;;;18.30;1.00;;;;;;9938641;29;20515;-80
2023/07/17 02:44:51;;;;;;;4.40;2.70;;;18.30;1.00;;;;;;9928786;30;20569;-80
2023/07/17 02:50:14;;;;;;;4.40;2.75;;;18.30;1.00;;;;;;9930552;29;20198;-81
2023/07/17 02:55:35;;;;;;;4.32;3.30;;;18.30;1.00;;;;;;9949251;29;20490;-82
2023/07/17 03:00:56;;;;;;;11.23;6.13;;;18.40;99.90;;;;;;9965667;29;20552;-82
2023/07/17 03:06:17;;;;;;;6.35;4.90;;;18.50;1.00;;;;;;9965164;29;20215;-82
2023/07/17 03:11:38;;;;;;;4.78;3.85;;;18.60;99.90;;;;;;9949211;29;20209;-82
2023/07/17 03:17:00;;;;;;;4.45;3.67;;;18.60;1.00;;;;;;9917541;29;20234;-82
2023/07/17 03:22:21;;;;;;;4.93;3.88;;;18.50;1.00;;;;;;9934282;29;20322;-82
2023/07/17 03:27:43;;;;;;;5.32;3.70;;;18.50;1.00;;;;;;9927626;29;20215;-82
2023/07/17 03:33:04;;;;;;;8.95;5.13;;;18.50;99.90;;;;;;9966562;29;20204;-82
2023/07/17 03:38:25;;;;;;;9.18;4.43;;;18.60;1.00;;;;;;9971732;29;20282;-82
2023/07/17 03:43:47;;;;;;;9.30;4.45;;;18.70;1.00;;;;;;9986680;29;20207;-82
2023/07/17 03:49:10;;;;;;;7.47;4.80;;;18.70;1.00;;;;;;9954422;29;20525;-80
2023/07/17 03:54:32;;;;;;;6.28;3.50;;;18.80;99.90;;;;;;9959853;29;20245;-81
2023/07/17 03:59:55;;;;;;;7.78;3.65;;;18.90;99.90;;;;;;9914544;30;20221;-80
2023/07/17 04:05:21;;;;;;;8.07;3.78;;;18.80;1.00;;;;;;9926529;30;20220;-80
2023/07/17 04:10:44;;;;;;;9.48;5.07;;;18.80;99.90;;;;;;9917167;29;20515;-80
2023/07/17 04:16:06;;;;;;;9.77;4.35;;;18.70;99.90;;;;;;9926269;30;20361;-80
2023/07/17 04:21:27;;;;;;;8.80;4.68;;;18.80;99.90;;;;;;9937025;29;20197;-80
2023/07/17 04:26:50;;;;;;;6.30;4.78;;;18.80;1.00;;;;;;9951360;29;20224;-81
2023/07/17 04:32:12;;;;;;;6.85;4.45;;;18.80;99.90;;;;;;9944438;29;20213;-81
2023/07/17 04:37:33;;;;;;;5.30;4.03;;;18.90;1.00;;;;;;9963130;29;20591;-80
2023/07/17 04:42:57;;;;;;;6.85;4.60;;;19.00;1.00;;;;;;9963427;29;20204;-81
2023/07/17 04:48:19;;;;;;;4.43;4.03;;;19.10;1.00;;;;;;9982185;29;20212;-81
2023/07/17 04:53:40;;;;;;;6.60;4.00;;;19.20;1.00;;;;;;9982260;29;20414;-80
2023/07/17 04:59:02;;;;;;;5.53;4.22;;;19.20;1.00;;;;;;9951142;29;20539;-80
2023/07/17 05:04:24;;;;;;;4.28;3.47;;;19.10;1.00;;;;;;9906963;30;20206;-81
2023/07/17 05:09:45;;;;;;;4.60;2.58;;;19.20;1.00;;;;;;9934850;29;20287;-80
2023/07/17 05:15:08;;;;;;;5.10;2.70;;;19.40;99.90;;;;;;9918969;30;20282;-81
2023/07/17 05:20:31;;;;;;;3.88;2.33;;;19.50;1.00;;;;;;9925012;29;20209;-83
2023/07/17 05:25:55;;;;;;;4.22;2.30;;;19.70;1.00;;;;;;9941908;29;20208;-83
2023/07/17 05:31:18;;;;;;;6.07;3.30;;;19.80;1.00;;;;;;9968373;29;20261;-83
2023/07/17 05:36:40;;;;;;;4.07;3.13;;;19.90;1.00;;;;;;9968130;29;20256;-83
2023/07/17 05:42:01;;;;;;;5.00;3.40;;;20.00;1.00;;;;;;9946874;29;20312;-83
2023/07/17 05:47:23;;;;;;;4.65;2.60;;;20.10;1.00;;;;;;9905943;30;20276;-83
2023/07/17 05:52:45;;;;;;;7.07;2.92;;;20.20;1.00;;;;;;9930863;29;20240;-82
2023/07/17 05:58:07;;;;;;;3.03;2.38;;;20.40;55.50;;;;;;9951628;29;20260;-83
2023/07/17 06:03:28;;;;;;;6.75;2.50;;;20.50;1.00;;;;;;9967782;29;20200;-82
2023/07/17 06:08:50;;;;;;;4.03;3.20;;;20.70;99.90;;;;;;9969194;29;20204;-80
2023/07/17 06:14:11;;;;;;;5.00;2.78;;;20.90;99.90;;;;;;9948668;29;20205;-83
2023/07/17 06:19:32;;;;;;;3.67;2.88;;;21.10;47.30;;;;;;9916713;30;20240;-80
2023/07/17 06:24:54;;;;;;;6.15;3.17;;;21.30;1.00;;;;;;9952641;29;20283;-80
2023/07/17 06:30:15;;;;;;;5.10;3.65;;;21.50;1.00;;;;;;9945733;29;20288;-81
2023/07/17 06:35:36;;;;;;;4.97;3.22;;;21.80;1.00;;;;;;9978727;29;20289;-81
2023/07/17 06:40:58;;;;;;;4.97;3.70;;;22.10;1.00;;;;;;9977901;29;20201;-81
2023/07/17 06:46:19;;;;;;;5.15;3.10;;;22.90;1.00;;;;;;9940872;29;20209;-81
2023/07/17 06:51:40;;;;;;;5.07;3.20;;;23.20;1.00;;;;;;9930262;29;20508;-81
2023/07/17 06:57:02;;;;;;;6.53;3.38;;;23.80;99.90;;;;;;9932093;29;20254;-80
2023/07/17 07:06:07;;;;;;;3.90;3.30;;;24.60;1.00;;;;;;10554240;27;20562;-81
2023/07/17 07:11:28;;;;;;;5.55;3.00;;;25.30;1.00;;;;;;10518683;28;20198;-81
2023/07/17 07:16:51;;;;;;;5.55;3.25;;;25.70;1.00;;;;;;10498658;28;20195;-81
2023/07/17 07:22:12;;;;;;;4.30;3.22;;;25.60;1.00;;;;;;10497532;28;20477;-82
2023/07/17 07:27:34;;;;;;;6.47;4.70;;;26.20;1.00;;;;;;10448833;28;20307;-84
2023/07/17 07:32:55;;;;;;;5.43;3.03;;;26.90;99.90;;;;;;10405216;28;20204;-79
2023/07/17 07:38:17;;;;;;;3.58;2.53;;;27.30;99.90;;;;;;10422754;28;20299;-81
2023/07/17 07:43:38;;;;;;;6.03;3.00;;;27.40;99.90;;;;;;10421297;28;20220;-79
2023/07/17 07:48:59;;;;;;;6.68;2.83;;;28.00;99.90;;;;;;10421070;28;20199;-79
2023/07/17 07:54:21;;;;;;;6.10;2.72;;;28.60;1.00;;;;;;10411804;28;20219;-82
2023/07/17 07:59:42;;;;;;;4.20;2.65;;;;;;;;;;10406351;28;20272;-83
2023/07/17 08:05:03;;;;;;;5.72;2.70;;;29.30;1.00;;;;;;10417574;28;20232;-82
2023/07/17 08:10:25;;;;;;;3.30;2.50;;;29.50;99.90;;;;;;10413910;28;20416;-80
2023/07/17 08:15:47;;;;;;;5.07;2.67;;;29.20;99.90;;;;;;10404865;28;20219;-80
2023/07/17 08:21:09;;;;;;;3.40;2.40;;;29.30;99.90;;;;;;10385030;28;20229;-80
2023/07/17 08:26:31;;;;;;;7.88;2.60;;;29.60;99.90;;;;;;10382881;28;20249;-79
2023/07/17 08:31:55;;;;;;;4.90;2.30;;;30.00;99.90;;;;;;10373879;28;20240;-82
2023/07/17 08:37:18;;;;;;;6.57;2.15;;;30.20;99.90;;;;;;10373394;28;20276;-86
2023/07/17 08:42:44;;;;;;;5.57;2.75;;;30.30;99.90;;;;;;10342510;28;20586;-81
2023/07/17 08:48:07;;;;;;;5.10;2.60;;;30.50;99.90;;;;;;10354535;28;20193;-84
2023/07/17 08:53:31;;;;;;;3.53;2.65;;;30.90;99.90;;;;;;10382351;28;20531;-83
2023/07/17 08:58:54;;;;;;;3.80;2.72;;;31.00;99.90;;;;;;10379824;28;20513;-80
2023/07/17 09:04:16;;;;;;;4.53;2.63;;;31.30;99.90;;;;;;10392648;28;20260;-85
2023/07/17 09:09:38;;;;;;;5.80;3.00;;;31.40;99.90;;;;;;10393135;28;20542;-83
2023/07/17 09:14:59;;;;;;;4.75;3.30;;;30.10;99.90;;;;;;10380602;28;20205;-85
2023/07/17 09:20:21;;;;;;;6.22;2.58;;;28.90;99.90;;;;;;10354522;28;20194;-82
2023/07/17 09:25:48;;;;;;;6.85;3.33;;;29.00;99.90;;;;;;10404723;28;20565;-82
2023/07/17 09:31:09;;;;;;;5.82;3.15;;;30.20;99.90;;;;;;10376244;28;20280;-83
2023/07/17 09:36:30;;;;;;;3.92;3.30;;;30.20;99.90;;;;;;10398396;28;20236;-82
2023/07/17 09:41:52;;;;;;;5.75;3.00;;;29.40;99.90;;;;;;10366083;28;20212;-87
2023/07/17 09:47:13;;;;;;;3.88;2.78;;;28.90;99.90;;;;;;10392284;28;20196;-80
2023/07/17 09:52:34;;;;;;;6.28;3.22;;;29.00;99.90;;;;;;10389434;28;20216;-82
2023/07/17 09:57:59;;;;;;;7.13;4.35;;;28.70;99.90;;;;;;10391870;28;20207;-81
2023/07/17 10:03:23;;;;;;;5.55;3.40;;;;;;;;;;10389460;28;22213;-83
2023/07/17 10:08:52;;;;;;;5.68;3.50;;;28.10;99.90;;;;;;10384133;28;20209;-81
2023/07/17 10:14:15;;;;;;;3.90;2.63;;;27.50;99.90;;;;;;10355869;28;20216;-80
2023/07/17 10:19:44;;;;;;;5.00;3.00;;;27.50;99.90;;;;;;10389497;28;20296;-80
2023/07/17 10:25:26;;;;;;;5.25;2.83;;;27.20;99.90;;;;;;10376358;28;20229;-83
2023/07/17 10:30:51;;;;;;;3.55;2.80;;;28.50;99.90;;;;;;10375649;28;20499;-83
2023/07/17 10:36:13;;;;;;;6.35;3.08;;;29.20;99.90;;;;;;10351321;28;20217;-85
2023/07/17 10:41:37;;;;;;;7.57;3.22;;;29.30;99.90;;;;;;10374916;28;20241;-82
2023/07/17 10:46:59;;;;;;;4.47;3.17;;;29.70;99.90;;;;;;10388888;28;20258;-83
2023/07/17 10:52:20;;;;;;;5.22;2.95;;;29.80;99.90;;;;;;10390479;28;20189;-87
2023/07/17 10:57:42;;;;;;;16.02;9.73;;;30.60;99.90;;;;;;10386767;28;20544;-79
2023/07/17 11:03:03;;;;;;;5.70;3.67;;;31.10;99.90;;;;;;10357875;28;20283;-82
2023/07/17 11:08:26;;;;;;;11.30;4.10;;;31.20;99.90;;;;;;10372269;28;20212;-87
2023/07/17 11:13:49;;;;;;;7.55;3.70;;;31.30;99.90;;;;;;10375996;28;20208;-89
2023/07/17 11:19:12;;;;;;;8.95;3.97;;;31.60;99.90;;;;;;10375393;28;20447;-85
2023/07/17 11:24:33;;;;;;;7.72;3.25;;;31.80;99.90;;;;;;10349154;28;20223;-82
2023/07/17 11:29:54;;;;;;;5.15;3.20;;;31.90;99.90;;;;;;10377724;28;20220;-84
2023/07/17 11:35:17;;;;;;;12.93;3.80;;;31.80;99.90;;;;;;10374786;28;20539;-84
2023/07/17 11:40:53;;;;;;;9.95;6.85;;;31.20;99.90;;;;;;10375013;28;20430;-84
2023/07/17 11:46:16;;;;;;;13.93;3.97;;;30.30;99.90;;;;;;10402034;28;20606;-83
2023/07/17 11:51:43;;;;;;;31.95;4.97;;;30.70;99.90;;;;;;10369192;28;20189;-85
2023/07/17 11:57:07;;;;;;;7.18;3.50;;;31.20;99.90;;;;;;10356311;28;20269;-83
2023/07/17 12:02:29;;;;;;;4.90;3.47;;;31.20;99.90;;;;;;10389450;28;20268;-86
2023/07/17 12:07:50;;;;;;;5.22;3.22;;;31.50;99.90;;;;;;10382831;28;20213;-82
2023/07/17 12:13:11;;;;;;;4.70;2.90;;;30.70;99.90;;;;;;10356236;28;20488;-87
2023/07/17 12:18:33;;;;;;;4.47;2.42;;;29.90;99.90;;;;;;10387141;28;20201;-83
2023/07/17 12:23:55;;;;;;;5.80;2.58;;;28.70;99.90;;;;;;10397042;28;20233;-85
2023/07/17 12:29:17;;;;;;;10.38;3.33;;;28.40;99.90;;;;;;10408661;28;20193;-86
2023/07/17 12:34:38;;;;;;;10.60;5.25;;;29.10;99.90;;;;;;10407359;28;20196;-86
2023/07/17 12:40:01;;;;;;;5.55;2.78;;;29.60;99.90;;;;;;10395368;28;20205;-88
2023/07/17 12:45:22;;;;;;;4.30;2.60;;;29.70;99.90;;;;;;10355718;28;20238;-83
2023/07/17 12:50:43;;;;;;;4.40;2.90;;;28.90;99.90;;;;;;10353408;28;20204;-82
2023/07/17 12:56:05;;;;;;;4.65;2.20;;;28.20;99.90;;;;;;10326664;28;20253;-87
2023/07/17 13:01:31;;;;;;;11.88;3.75;;;27.80;99.90;;;;;;10403886;28;20217;-80
2023/07/17 13:06:52;;;;;;;1.88;1.30;;;27.20;99.90;;;;;;10375766;28;20245;-85
2023/07/17 13:12:14;;;;;;;8.90;1.58;;;26.50;99.90;;;;;;10340510;28;20252;-85
2023/07/17 13:17:35;;;;;;;1.85;1.15;;;26.30;99.90;;;;;;10340304;28;20277;-86
2023/07/17 13:23:03;;;;;;;2.10;1.20;;;26.00;99.90;;;;;;10347996;28;20332;-88
2023/07/17 13:28:25;;;;;;;2.33;1.30;;;25.70;99.90;;;;;;10354061;28;20240;-87
2023/07/17 13:33:46;;;;;;;6.53;1.83;;;25.50;99.90;;;;;;10373900;28;20201;-86
2023/07/17 13:39:07;;;;;;;5.50;2.15;;;25.60;99.90;;;;;;10368766;28;20217;-87
2023/07/17 13:44:29;;;;;;;3.65;2.67;;;25.80;99.90;;;;;;10366302;28;20225;-84
2023/07/17 13:49:50;;;;;;;3.42;2.30;;;25.90;99.90;;;;;;10379372;28;20327;-84
2023/07/17 13:55:13;;;;;;;4.30;2.35;;;26.00;99.90;;;;;;10378626;28;20463;-86
2023/07/17 14:00:34;;;;;;;6.63;3.05;;;26.50;99.90;;;;;;10376352;28;20207;-88
2023/07/17 14:05:56;;;;;;;4.30;2.45;;;26.80;99.90;;;;;;10378019;28;20644;-85
2023/07/17 14:11:18;;;;;;;4.43;2.20;;;26.90;99.90;;;;;;10371816;28;20515;-82
2023/07/17 14:16:39;;;;;;;3.53;2.15;;;27.10;99.90;;;;;;10362820;28;20424;-86
2023/07/17 14:22:01;;;;;;;2.42;2.03;;;27.30;99.90;;;;;;10389263;28;20209;-85
2023/07/17 14:27:22;;;;;;;5.25;2.35;;;27.50;99.90;;;;;;10377232;28;20261;-84
2023/07/17 14:32:44;;;;;;;9.85;2.67;;;27.30;99.90;;;;;;10376119;28;20215;-81
2023/07/17 14:38:05;;;;;;;5.15;2.50;;;27.20;99.90;;;;;;10389231;28;20217;-81
2023/07/17 14:43:27;;;;;;;4.25;2.65;;;27.10;99.90;;;;;;10377279;28;20242;-90
2023/07/17 14:48:48;;;;;;;5.75;2.47;;;27.10;99.90;;;;;;10391672;28;20192;-82
2023/07/17 14:54:10;;;;;;;3.33;2.65;;;26.90;99.90;;;;;;10375153;28;20458;-82
2023/07/17 14:59:32;;;;;;;3.30;2.53;;;26.60;99.90;;;;;;10389061;28;20453;-80
2023/07/17 15:04:54;;;;;;;3.03;2.35;;;26.40;99.90;;;;;;10391711;28;20244;-83
2023/07/17 15:10:15;;;;;;;5.03;2.28;;;26.30;99.90;;;;;;10377022;28;20205;-84
2023/07/17 15:15:37;;;;;;;5.80;2.35;;;26.20;99.90;;;;;;10383743;28;20542;-79
2023/07/17 15:20:58;;;;;;;5.47;2.75;;;26.40;99.90;;;;;;10395320;28;20415;-90
2023/07/17 15:26:19;;;;;;;2.80;2.15;;;26.50;99.90;;;;;;10373346;28;20221;-80
2023/07/17 15:31:41;;;;;;;4.05;2.40;;;26.40;99.90;;;;;;10389883;28;20197;-80
2023/07/17 15:37:03;;;;;;;3.92;2.38;;;26.30;99.90;;;;;;10399212;28;20484;-82
2023/07/17 15:42:25;;;;;;;4.88;2.90;;;26.20;99.90;;;;;;10367358;28;20218;-81
2023/07/17 15:47:47;;;;;;;3.72;3.25;;;26.10;99.90;;;;;;10382220;28;20201;-79
2023/07/17 15:53:08;;;;;;;2.75;2.30;;;26.00;99.90;;;;;;10386774;28;20197;-81
2023/07/17 15:58:29;;;;;;;3.00;2.50;;;25.80;99.90;;;;;;10401249;28;20209;-86
2023/07/17 16:03:51;;;;;;;5.28;2.45;;;25.70;99.90;;;;;;10400860;28;20328;-79
2023/07/17 16:09:12;;;;;;;2.80;2.55;;;25.50;99.90;;;;;;10373161;28;20201;-87
2023/07/17 16:14:33;;;;;;;4.78;2.70;;;25.30;99.90;;;;;;10365679;28;20197;-79
2023/07/17 16:19:55;;;;;;;3.15;2.33;;;25.10;99.90;;;;;;10399925;28;20197;-85
2023/07/17 16:25:16;;;;;;;3.28;2.45;;;24.90;99.90;;;;;;10400537;28;20511;-83
2023/07/17 16:30:38;;;;;;;5.40;2.50;;;24.80;99.90;;;;;;10399194;28;20197;-81
2023/07/17 16:35:59;;;;;;;4.95;1.65;;;24.40;99.90;;;;;;10399040;28;20205;-79
2023/07/17 16:41:22;;;;;;;2.65;1.90;;;22.70;1.00;;;;;;10399425;28;20514;-81
2023/07/17 16:46:43;;;;;;;2.17;1.92;;;22.30;99.90;;;;;;10384080;28;20217;-85
2023/07/17 16:52:04;;;;;;;4.00;2.10;;;21.80;99.90;;;;;;10391326;28;20205;-87
2023/07/17 16:57:26;;;;;;;3.13;2.00;;;21.30;99.90;;;;;;10400554;28;20193;-85
2023/07/17 17:02:47;;;;;;;9.13;1.88;;;21.00;1.00;;;;;;10349082;28;20245;-84
2023/07/17 17:08:08;;;;;;;3.40;1.85;;;20.70;1.00;;;;;;10398243;28;20296;-82
2023/07/17 17:13:30;;;;;;;3.80;2.50;;;20.50;1.00;;;;;;10381985;28;20196;-79
2023/07/17 17:18:51;;;;;;;6.93;2.67;;;20.40;1.00;;;;;;10359835;28;20495;-86
2023/07/17 17:24:14;;;;;;;4.63;2.15;;;20.60;1.00;;;;;;10357136;28;20238;-81
2023/07/17 17:29:35;;;;;;;2.50;1.80;;;20.60;1.00;;;;;;10358745;28;20316;-80
2023/07/17 17:34:57;;;;;;;3.58;1.73;;;20.60;1.00;;;;;;10398004;28;20339;-91
2023/07/17 17:40:18;;;;;;;1.92;1.60;;;20.60;1.00;;;;;;10375633;28;20274;-79
2023/07/17 17:45:39;;;;;;;3.45;1.92;;;20.50;1.00;;;;;;10408694;28;20283;-79
2023/07/17 17:51:00;;;;;;;3.63;1.90;;;20.50;1.00;;;;;;10378154;28;20197;-82
2023/07/17 17:56:22;;;;;;;4.22;2.10;;;20.60;1.00;;;;;;10375589;28;20212;-81
2023/07/17 18:01:43;;;;;;;3.45;2.15;;;20.80;1.00;;;;;;10386882;28;20581;-82
2023/07/17 18:07:04;;;;;;;4.32;1.90;;;20.80;1.00;;;;;;10385888;28;20228;-84
2023/07/17 18:12:25;;;;;;;2.53;1.85;;;21.00;1.00;;;;;;10378771;28;20281;-88
2023/07/17 18:17:47;;;;;;;3.05;2.00;;;21.10;1.00;;;;;;10376795;28;20438;-87
2023/07/17 18:23:08;;;;;;;3.17;2.30;;;21.00;1.00;;;;;;10363577;28;20300;-79
2023/07/17 18:28:30;;;;;;;6.95;2.42;;;21.10;1.00;;;;;;10393371;28;20393;-87
2023/07/17 18:33:52;;;;;;;5.43;3.17;;;21.20;1.00;;;;;;10380628;28;20284;-81
2023/07/17 18:39:13;;;;;;;5.72;3.55;;;21.10;1.00;;;;;;10395121;28;20228;-83
2023/07/17 18:44:34;;;;;;;5.22;3.17;;;21.00;1.00;;;;;;10392020;28;20223;-84
2023/07/17 18:49:56;;;;;;;7.57;2.65;;;20.90;1.00;;;;;;10377840;28;20537;-83
2023/07/17 18:55:17;;;;;;;4.15;2.53;;;20.90;1.00;;;;;;10386105;28;20205;-87
2023/07/17 19:00:41;;;;;;;3.30;2.25;;;20.70;1.00;;;;;;10394959;28;20264;-86
2023/07/17 19:06:02;;;;;;;2.90;2.60;;;20.60;1.00;;;;;;10400516;28;20315;-82
2023/07/17 19:11:24;;;;;;;3.47;2.03;;;20.50;1.00;;;;;;10366153;28;20196;-89
2023/07/17 19:16:45;;;;;;;4.65;2.38;;;20.40;1.00;;;;;;10358955;28;20206;-83
2023/07/17 19:22:07;;;;;;;3.38;2.20;;;20.30;1.00;;;;;;10391049;28;20269;-81
2023/07/17 19:27:30;;;;;;;4.63;2.60;;;20.30;1.00;;;;;;10400321;28;20304;-84
2023/07/17 19:32:52;;;;;;;2.90;2.50;;;20.30;1.00;;;;;;10412613;28;20255;-79
2023/07/17 19:38:13;;;;;;;3.78;2.95;;;20.20;1.00;;;;;;10394911;28;20209;-80
2023/07/17 19:43:34;;;;;;;4.45;2.70;;;20.00;1.00;;;;;;10397753;28;20209;-82
2023/07/17 19:48:56;;;;;;;6.57;3.13;;;19.90;1.00;;;;;;10400188;28;20205;-79
2023/07/17 19:54:18;;;;;;;3.70;2.80;;;;;;;;;;10387964;28;20193;-84
2023/07/17 19:59:39;;;;;;;5.95;2.63;;;19.80;1.00;;;;;;10401315;28;20499;-88
2023/07/17 20:05:01;;;;;;;4.93;3.40;;;19.70;1.00;;;;;;10392325;28;20312;-80
2023/07/17 20:10:22;;;;;;;4.80;3.47;;;19.70;9.10;;;;;;10354320;28;20251;-81
2023/07/17 20:15:43;;;;;;;5.82;3.10;;;19.70;94.20;;;;;;10346260;28;20294;-81
2023/07/17 20:21:05;;;;;;;4.30;3.30;;;19.70;50.30;;;;;;10390800;28;20201;-79
2023/07/17 20:26:26;;;;;;;4.30;3.35;;;19.50;99.90;;;;;;10399547;28;20229;-80
2023/07/17 20:31:48;;;;;;;7.85;4.75;;;19.60;94.50;;;;;;10366054;28;20231;-86
2023/07/17 20:37:10;;;;;;;8.30;4.00;;;19.60;93.10;;;;;;10383249;28;20209;-81
2023/07/17 20:42:47;;;;;;;7.15;4.30;;;19.70;99.90;;;;;;10399295;28;20216;-79
2023/07/17 20:48:08;;;;;;;7.13;3.75;;;19.60;99.90;;;;;;10396711;28;20205;-79
2023/07/17 20:53:29;;;;;;;7.28;3.60;;;19.60;99.90;;;;;;10397815;28;20204;-83
2023/07/17 20:58:52;;;;;;;4.43;2.80;;;19.60;99.90;;;;;;10399567;28;20197;-82
2023/07/17 21:04:14;;;;;;;6.07;2.70;;;19.40;1.00;;;;;;10383928;28;20467;-83
2023/07/17 21:09:35;;;;;;;4.05;2.83;;;19.30;1.00;;;;;;10384881;28;20288;-84
2023/07/17 21:14:56;;;;;;;4.10;2.80;;;19.30;1.00;;;;;;10400071;28;20189;-79
2023/07/17 21:20:18;;;;;;;5.78;3.30;;;19.30;1.00;;;;;;10397372;28;20205;-78
2023/07/17 21:25:40;;;;;;;7.25;3.42;;;19.40;1.00;;;;;;10398579;28;20216;-79
2023/07/17 21:31:01;;;;;;;7.72;3.65;;;19.30;1.00;;;;;;10384603;28;20391;-82
2023/07/17 21:36:22;;;;;;;6.82;3.50;;;19.30;1.00;;;;;;10394656;28;20228;-82
2023/07/17 21:41:43;;;;;;;7.10;3.78;;;19.20;1.00;;;;;;10360058;28;20202;-79
2023/07/17 21:47:06;;;;;;;7.78;4.10;;;19.10;1.00;;;;;;10359177;28;20260;-80
2023/07/17 21:52:27;;;;;;;5.80;3.60;;;19.10;1.00;;;;;;10389062;28;20271;-79
2023/07/17 21:57:48;;;;;;;5.30;3.83;;;18.90;99.90;;;;;;10397672;28;20193;-80
2023/07/17 22:03:10;;;;;;;5.43;3.55;;;18.80;1.00;;;;;;10397393;28;20304;-80
2023/07/17 22:08:31;;;;;;;5.68;3.75;;;18.80;99.90;;;;;;10395838;28;20196;-80
2023/07/17 22:13:52;;;;;;;6.72;3.33;;;18.90;1.00;;;;;;10398125;28;20213;-81
2023/07/17 22:19:13;;;;;;;6.85;4.13;;;18.80;1.00;;;;;;10383174;28;20250;-82
2023/07/17 22:24:35;;;;;;;4.85;3.40;;;18.80;99.90;;;;;;10396495;28;20224;-87
2023/07/17 22:29:58;;;;;;;7.47;4.10;;;18.80;99.90;;;;;;10396512;28;20196;-79
2023/07/17 22:35:20;;;;;;;6.38;3.80;;;18.80;99.90;;;;;;10371025;28;20202;-84
2023/07/17 22:40:42;;;;;;;7.50;3.60;;;18.80;1.00;;;;;;10374581;28;20287;-80
2023/07/17 22:46:03;;;;;;;6.88;3.80;;;18.70;1.00;;;;;;10367305;28;20231;-79
2023/07/17 22:51:25;;;;;;;7.43;3.53;;;18.60;70.20;;;;;;10366955;28;20276;-80
2023/07/17 22:56:46;;;;;;;6.63;2.97;;;18.30;99.90;;;;;;10379100;28;20212;-81
2023/07/17 23:02:08;;;;;;;4.57;3.08;;;18.20;99.90;;;;;;10380398;28;20236;-81
2023/07/17 23:07:29;;;;;;;8.60;3.78;;;18.10;99.90;;;;;;10393967;28;20227;-79
2023/07/17 23:12:51;;;;;;;5.32;3.08;;;18.00;1.00;;;;;;10394308;28;20203;-81
2023/07/17 23:18:13;;;;;;;3.25;2.35;;;18.00;1.00;;;;;;10392898;28;20204;-78
2023/07/17 23:23:34;;;;;;;6.40;2.90;;;17.90;1.00;;;;;;10394233;28;20207;-80
2023/07/17 23:28:56;;;;;;;4.82;2.65;;;17.70;1.00;;;;;;10394109;28;20409;-80
2023/07/17 23:34:18;;;;;;;3.63;2.08;;;17.60;99.90;;;;;;10392652;28;20564;-79
2023/07/17 23:39:39;;;;;;;4.60;2.17;;;17.60;1.00;;;;;;10385840;28;20205;-80
2023/07/17 23:45:03;;;;;;;4.72;2.05;;;17.50;1.00;;;;;;10354571;28;20218;-79
2023/07/17 23:50:25;;;;;;;3.10;2.00;;;17.50;1.00;;;;;;10387902;28;20263;-80
2023/07/17 23:55:46;;;;;;;1.95;1.80;;;17.40;1.00;;;;;;10401450;28;20197;-81
